createdAt,value
2022-10-03T00:02:44.401Z,20.30
2022-10-03T00:12:59.570Z,15.90
2022-10-03T00:23:09.697Z,15.50
2022-10-03T00:33:39.026Z,19.00
2022-10-03T00:44:00.121Z,17.50
2022-10-03T00:54:14.570Z,16.90
2022-10-03T01:04:23.324Z,14.50
2022-10-03T01:14:29.790Z,14.70
2022-10-03T01:25:08.770Z,12.90
2022-10-03T01:35:21.733Z,17.90
2022-10-03T01:45:32.348Z,18.30
2022-10-03T01:55:51.121Z,15.40
2022-10-03T02:06:22.445Z,17.60
2022-10-03T02:16:44.752Z,13.80
2022-10-03T02:26:57.198Z,15.30
2022-10-03T02:37:22.062Z,15.70
2022-10-03T02:47:40.637Z,19.00
2022-10-03T02:58:03.363Z,22.70
2022-10-03T03:08:28.195Z,17.40
2022-10-03T03:18:55.202Z,13.00
2022-10-03T03:29:13.363Z,18.30
2022-10-03T03:39:32.065Z,20.30
2022-10-03T03:49:59.273Z,20.60
2022-10-03T04:00:19.556Z,17.30
2022-10-03T04:10:35.024Z,17.30
2022-10-03T04:20:59.936Z,15.80
2022-10-03T04:31:21.478Z,23.40
2022-10-03T04:41:42.912Z,23.70
2022-10-03T04:51:55.347Z,17.10
2022-10-03T05:02:05.572Z,21.30
2022-10-03T05:12:30.698Z,21.00
2022-10-03T05:22:42.811Z,17.10
2022-10-03T05:32:49.053Z,19.30
2022-10-03T05:43:04.417Z,13.40
2022-10-03T05:53:13.560Z,20.00
2022-10-03T06:03:39.008Z,14.50
2022-10-03T06:14:03.935Z,19.80
2022-10-03T06:24:28.744Z,19.80
2022-10-03T06:34:53.996Z,17.70
2022-10-03T06:45:12.680Z,17.50
2022-10-03T06:55:21.740Z,16.50
2022-10-03T07:05:46.049Z,14.00
2022-10-03T07:26:48.898Z,17.10
2022-10-03T07:37:36.276Z,14.30
2022-10-03T07:47:48.555Z,15.40
2022-10-03T07:58:08.746Z,16.20
2022-10-03T08:08:38.090Z,14.10
2022-10-03T08:18:50.196Z,10.70
2022-10-03T08:29:02.119Z,11.90
2022-10-03T08:39:46.971Z,15.50
2022-10-03T08:50:11.523Z,13.30
2022-10-03T09:00:17.835Z,13.30
2022-10-03T09:10:23.895Z,10.80
2022-10-03T09:20:49.522Z,12.20
2022-10-03T09:31:05.149Z,13.20
2022-10-03T09:41:20.504Z,8.10
2022-10-03T09:51:38.922Z,11.10
2022-10-03T10:02:03.310Z,10.70
2022-10-03T10:12:15.366Z,10.40
2022-10-03T10:22:28.941Z,9.80
2022-10-03T10:33:00.235Z,9.45
2022-10-03T10:43:21.854Z,9.40
2022-10-03T10:53:41.651Z,10.10
2022-10-03T11:03:58.416Z,7.40
2022-10-03T11:14:22.899Z,10.40
2022-10-03T11:24:45.527Z,12.40
2022-10-03T11:35:09.077Z,13.50
2022-10-03T11:45:27.134Z,16.70
2022-10-03T11:55:55.765Z,7.50
2022-10-03T12:06:23.929Z,10.60
2022-10-03T12:16:31.636Z,12.50
2022-10-03T12:26:44.850Z,8.50
2022-10-03T12:36:54.569Z,10.80
2022-10-03T12:47:03.588Z,14.30
2022-10-03T12:57:33.005Z,11.00
2022-10-03T13:07:44.594Z,12.30
2022-10-03T13:17:57.264Z,10.10
2022-10-03T13:28:09.270Z,12.50
2022-10-03T13:38:18.940Z,12.10
2022-10-03T13:48:28.626Z,16.80
2022-10-03T13:58:46.079Z,14.80
2022-10-03T14:09:10.428Z,13.60
2022-10-03T14:19:31.786Z,24.30
2022-10-03T14:29:45.305Z,26.60
2022-10-03T14:39:58.778Z,23.70
2022-10-03T14:50:06.289Z,27.70
2022-10-03T15:00:25.007Z,15.60
2022-10-03T15:10:32.399Z,27.60
2022-10-03T15:20:39.168Z,27.10
2022-10-03T15:30:46.582Z,14.30
2022-10-03T15:40:55.703Z,24.90
2022-10-03T15:51:17.591Z,20.20
2022-10-03T16:01:26.347Z,21.20
2022-10-03T16:11:38.372Z,15.20
2022-10-03T16:21:49.244Z,14.40
2022-10-03T16:32:03.088Z,10.00
2022-10-03T16:42:19.562Z,12.70
2022-10-03T16:52:30.980Z,12.30
2022-10-03T17:02:38.966Z,11.60
2022-10-03T17:12:47.304Z,16.80
2022-10-03T17:23:02.500Z,19.20
2022-10-03T17:33:32.266Z,21.70
2022-10-03T17:43:57.203Z,20.60
2022-10-03T17:54:05.423Z,19.15
2022-10-03T18:04:17.682Z,20.80
2022-10-03T18:14:29.714Z,20.40
2022-10-03T18:24:35.771Z,21.70
2022-10-03T18:34:49.449Z,17.10
2022-10-03T18:44:59.621Z,21.10
2022-10-03T18:55:13.193Z,23.40
2022-10-03T19:05:21.977Z,21.20
2022-10-03T19:15:39.532Z,21.10
2022-10-03T19:25:49.569Z,25.10
2022-10-03T19:35:57.187Z,21.90
2022-10-03T19:46:27.071Z,23.50
2022-10-03T19:56:33.817Z,26.00
2022-10-03T20:06:42.563Z,23.20
2022-10-03T20:16:49.739Z,24.30
2022-10-03T20:27:02.679Z,23.20
2022-10-03T20:37:08.813Z,22.60
2022-10-03T20:47:27.374Z,20.00
2022-10-03T20:57:36.963Z,23.70
2022-10-03T21:07:45.649Z,23.60
2022-10-03T21:17:51.894Z,25.70
2022-10-03T21:27:58.960Z,26.90
2022-10-03T21:38:11.794Z,23.30
2022-10-03T21:48:24.046Z,21.00
2022-10-03T21:58:36.214Z,23.40
2022-10-03T22:08:44.422Z,23.70
2022-10-03T22:19:05.737Z,22.40
2022-10-03T22:29:22.191Z,18.20
2022-10-03T22:39:29.799Z,18.10
2022-10-03T22:49:40.900Z,23.20
2022-10-03T22:59:49.215Z,19.40
2022-10-03T23:10:13.998Z,22.80
2022-10-03T23:20:20.227Z,18.30
2022-10-03T23:30:26.229Z,19.70
2022-10-03T23:40:38.702Z,20.90
2022-10-03T23:50:50.020Z,18.70
